sensor_id;sensor_type;location;lat;lon;timestamp;P1;durP1;ratioP1;P2;durP2;ratioP2
10248;SDS011;5169;50.560;9.714;2024-03-22T00:02:07;8.43;;;6.00;;
10248;SDS011;5169;50.560;9.714;2024-03-22T00:04:36;8.47;;;6.27;;
10248;SDS011;5169;50.560;9.714;2024-03-22T00:07:02;7.40;;;6.10;;
10248;SDS011;5169;50.560;9.714;2024-03-22T00:09:28;10.13;;;5.93;;
10248;SDS011;5169;50.560;9.714;2024-03-22T00:11:53;8.33;;;5.73;;
10248;SDS011;5169;50.560;9.714;2024-03-22T00:14:19;8.67;;;5.83;;
10248;SDS011;5169;50.560;9.714;2024-03-22T00:16:47;7.40;;;5.87;;
10248;SDS011;5169;50.560;9.714;2024-03-22T00:19:13;9.87;;;5.93;;
10248;SDS011;5169;50.560;9.714;2024-03-22T00:21:38;8.40;;;5.90;;
10248;SDS011;5169;50.560;9.714;2024-03-22T00:24:04;7.80;;;6.10;;
10248;SDS011;5169;50.560;9.714;2024-03-22T00:26:30;7.87;;;6.47;;
10248;SDS011;5169;50.560;9.714;2024-03-22T00:28:56;8.17;;;6.43;;
10248;SDS011;5169;50.560;9.714;2024-03-22T00:31:24;8.70;;;5.97;;
10248;SDS011;5169;50.560;9.714;2024-03-22T00:33:50;7.23;;;6.17;;
10248;SDS011;5169;50.560;9.714;2024-03-22T00:36:15;7.80;;;6.53;;
10248;SDS011;5169;50.560;9.714;2024-03-22T00:38:41;8.80;;;6.67;;
10248;SDS011;5169;50.560;9.714;2024-03-22T00:41:07;9.17;;;6.53;;
10248;SDS011;5169;50.560;9.714;2024-03-22T00:43:32;9.80;;;6.63;;
10248;SDS011;5169;50.560;9.714;2024-03-22T00:45:58;7.87;;;6.43;;
10248;SDS011;5169;50.560;9.714;2024-03-22T00:48:24;7.47;;;6.07;;
10248;SDS011;5169;50.560;9.714;2024-03-22T00:50:49;6.73;;;5.63;;
10248;SDS011;5169;50.560;9.714;2024-03-22T00:53:15;7.87;;;5.90;;
10248;SDS011;5169;50.560;9.714;2024-03-22T00:55:42;8.33;;;6.20;;
10248;SDS011;5169;50.560;9.714;2024-03-22T00:58:08;8.43;;;6.27;;
10248;SDS011;5169;50.560;9.714;2024-03-22T01:00:34;6.90;;;6.13;;
10248;SDS011;5169;50.560;9.714;2024-03-22T01:03:01;7.37;;;5.93;;
10248;SDS011;5169;50.560;9.714;2024-03-22T01:05:30;8.70;;;6.63;;
10248;SDS011;5169;50.560;9.714;2024-03-22T01:07:58;9.67;;;6.50;;
10248;SDS011;5169;50.560;9.714;2024-03-22T01:10:24;8.67;;;6.60;;
10248;SDS011;5169;50.560;9.714;2024-03-22T01:12:49;8.93;;;6.40;;
10248;SDS011;5169;50.560;9.714;2024-03-22T01:15:15;8.33;;;6.17;;
10248;SDS011;5169;50.560;9.714;2024-03-22T01:17:41;7.70;;;5.87;;
10248;SDS011;5169;50.560;9.714;2024-03-22T01:20:06;7.93;;;6.47;;
10248;SDS011;5169;50.560;9.714;2024-03-22T01:22:34;8.33;;;6.60;;
10248;SDS011;5169;50.560;9.714;2024-03-22T01:25:02;7.40;;;5.93;;
10248;SDS011;5169;50.560;9.714;2024-03-22T01:27:30;8.07;;;6.83;;
10248;SDS011;5169;50.560;9.714;2024-03-22T01:29:56;8.17;;;6.90;;
10248;SDS011;5169;50.560;9.714;2024-03-22T01:32:26;10.73;;;6.57;;
10248;SDS011;5169;50.560;9.714;2024-03-22T01:34:57;9.13;;;7.20;;
10248;SDS011;5169;50.560;9.714;2024-03-22T01:37:22;9.23;;;7.57;;
10248;SDS011;5169;50.560;9.714;2024-03-22T01:39:51;9.10;;;6.87;;
10248;SDS011;5169;50.560;9.714;2024-03-22T01:42:16;11.03;;;7.47;;
10248;SDS011;5169;50.560;9.714;2024-03-22T01:44:44;7.83;;;6.83;;
10248;SDS011;5169;50.560;9.714;2024-03-22T01:47:13;9.63;;;7.13;;
10248;SDS011;5169;50.560;9.714;2024-03-22T01:49:39;10.40;;;7.40;;
10248;SDS011;5169;50.560;9.714;2024-03-22T01:52:05;9.67;;;6.77;;
10248;SDS011;5169;50.560;9.714;2024-03-22T01:54:31;9.37;;;7.30;;
10248;SDS011;5169;50.560;9.714;2024-03-22T01:56:56;9.23;;;6.77;;
10248;SDS011;5169;50.560;9.714;2024-03-22T01:59:22;10.13;;;7.27;;
10248;SDS011;5169;50.560;9.714;2024-03-22T02:01:48;10.17;;;7.73;;
10248;SDS011;5169;50.560;9.714;2024-03-22T02:04:14;10.40;;;7.33;;
10248;SDS011;5169;50.560;9.714;2024-03-22T02:06:40;10.17;;;7.73;;
10248;SDS011;5169;50.560;9.714;2024-03-22T02:09:08;11.47;;;7.83;;
10248;SDS011;5169;50.560;9.714;2024-03-22T02:11:36;10.33;;;7.40;;
10248;SDS011;5169;50.560;9.714;2024-03-22T02:14:05;9.93;;;7.40;;
10248;SDS011;5169;50.560;9.714;2024-03-22T02:16:30;11.43;;;8.23;;
10248;SDS011;5169;50.560;9.714;2024-03-22T02:18:56;12.00;;;8.37;;
10248;SDS011;5169;50.560;9.714;2024-03-22T02:21:22;11.37;;;8.30;;
10248;SDS011;5169;50.560;9.714;2024-03-22T02:23:52;11.50;;;8.43;;
10248;SDS011;5169;50.560;9.714;2024-03-22T02:26:17;10.20;;;8.00;;
10248;SDS011;5169;50.560;9.714;2024-03-22T02:28:43;13.47;;;9.90;;
10248;SDS011;5169;50.560;9.714;2024-03-22T02:31:08;13.23;;;8.53;;
10248;SDS011;5169;50.560;9.714;2024-03-22T02:33:34;12.93;;;8.47;;
10248;SDS011;5169;50.560;9.714;2024-03-22T02:36:02;12.90;;;8.83;;
10248;SDS011;5169;50.560;9.714;2024-03-22T02:38:27;11.63;;;9.00;;
10248;SDS011;5169;50.560;9.714;2024-03-22T02:40:53;11.50;;;8.77;;
10248;SDS011;5169;50.560;9.714;2024-03-22T02:43:21;12.17;;;9.20;;
10248;SDS011;5169;50.560;9.714;2024-03-22T02:45:47;10.87;;;9.00;;
10248;SDS011;5169;50.560;9.714;2024-03-22T02:48:13;13.80;;;9.27;;
10248;SDS011;5169;50.560;9.714;2024-03-22T02:50:38;13.13;;;10.20;;
10248;SDS011;5169;50.560;9.714;2024-03-22T02:53:04;13.33;;;10.00;;
10248;SDS011;5169;50.560;9.714;2024-03-22T02:55:35;16.90;;;10.67;;
10248;SDS011;5169;50.560;9.714;2024-03-22T02:58:07;15.13;;;11.10;;
10248;SDS011;5169;50.560;9.714;2024-03-22T03:00:36;17.13;;;11.23;;
10248;SDS011;5169;50.560;9.714;2024-03-22T03:03:03;17.10;;;11.43;;
10248;SDS011;5169;50.560;9.714;2024-03-22T03:05:31;18.40;;;11.90;;
10248;SDS011;5169;50.560;9.714;2024-03-22T03:07:59;17.10;;;12.13;;
10248;SDS011;5169;50.560;9.714;2024-03-22T03:10:30;17.10;;;12.50;;
10248;SDS011;5169;50.560;9.714;2024-03-22T03:12:55;17.93;;;12.73;;
10248;SDS011;5169;50.560;9.714;2024-03-22T03:15:21;18.87;;;13.57;;
10248;SDS011;5169;50.560;9.714;2024-03-22T03:17:46;18.73;;;12.77;;
10248;SDS011;5169;50.560;9.714;2024-03-22T03:20:12;19.13;;;13.20;;
10248;SDS011;5169;50.560;9.714;2024-03-22T03:22:41;20.50;;;13.23;;
10248;SDS011;5169;50.560;9.714;2024-03-22T03:25:08;20.40;;;13.30;;
10248;SDS011;5169;50.560;9.714;2024-03-22T03:27:34;19.97;;;13.50;;
10248;SDS011;5169;50.560;9.714;2024-03-22T03:30:00;22.63;;;13.33;;
10248;SDS011;5169;50.560;9.714;2024-03-22T03:32:26;20.90;;;14.30;;
10248;SDS011;5169;50.560;9.714;2024-03-22T03:34:53;23.23;;;14.13;;
10248;SDS011;5169;50.560;9.714;2024-03-22T03:37:18;22.13;;;14.73;;
10248;SDS011;5169;50.560;9.714;2024-03-22T03:39:46;21.87;;;14.17;;
10248;SDS011;5169;50.560;9.714;2024-03-22T03:42:12;24.67;;;15.77;;
10248;SDS011;5169;50.560;9.714;2024-03-22T03:44:40;24.83;;;15.07;;
10248;SDS011;5169;50.560;9.714;2024-03-22T03:47:06;22.37;;;15.23;;
10248;SDS011;5169;50.560;9.714;2024-03-22T03:49:32;21.03;;;14.27;;
10248;SDS011;5169;50.560;9.714;2024-03-22T03:51:57;21.50;;;14.37;;
10248;SDS011;5169;50.560;9.714;2024-03-22T03:54:25;22.80;;;15.77;;
10248;SDS011;5169;50.560;9.714;2024-03-22T03:56:51;21.43;;;13.57;;
10248;SDS011;5169;50.560;9.714;2024-03-22T03:59:18;21.13;;;13.33;;
10248;SDS011;5169;50.560;9.714;2024-03-22T04:01:46;19.87;;;13.43;;
10248;SDS011;5169;50.560;9.714;2024-03-22T04:04:12;19.00;;;13.53;;
10248;SDS011;5169;50.560;9.714;2024-03-22T04:06:38;18.43;;;12.73;;
10248;SDS011;5169;50.560;9.714;2024-03-22T04:09:03;18.03;;;13.03;;
10248;SDS011;5169;50.560;9.714;2024-03-22T04:11:31;19.57;;;13.40;;
10248;SDS011;5169;50.560;9.714;2024-03-22T04:13:57;20.47;;;12.90;;
10248;SDS011;5169;50.560;9.714;2024-03-22T04:16:23;20.57;;;13.73;;
10248;SDS011;5169;50.560;9.714;2024-03-22T04:18:48;21.47;;;14.33;;
10248;SDS011;5169;50.560;9.714;2024-03-22T04:21:17;18.60;;;13.27;;
10248;SDS011;5169;50.560;9.714;2024-03-22T04:23:42;19.37;;;13.67;;
10248;SDS011;5169;50.560;9.714;2024-03-22T04:26:10;22.33;;;14.57;;
10248;SDS011;5169;50.560;9.714;2024-03-22T04:28:36;21.00;;;14.17;;
10248;SDS011;5169;50.560;9.714;2024-03-22T04:31:02;20.97;;;14.93;;
10248;SDS011;5169;50.560;9.714;2024-03-22T04:33:30;24.53;;;15.57;;
10248;SDS011;5169;50.560;9.714;2024-03-22T04:35:56;23.17;;;14.33;;
10248;SDS011;5169;50.560;9.714;2024-03-22T04:38:23;23.03;;;14.50;;
10248;SDS011;5169;50.560;9.714;2024-03-22T04:40:49;24.47;;;15.93;;
10248;SDS011;5169;50.560;9.714;2024-03-22T04:43:15;25.70;;;15.90;;
10248;SDS011;5169;50.560;9.714;2024-03-22T04:45:42;24.93;;;15.87;;
10248;SDS011;5169;50.560;9.714;2024-03-22T04:48:12;25.37;;;16.37;;
10248;SDS011;5169;50.560;9.714;2024-03-22T04:50:38;22.87;;;15.37;;
10248;SDS011;5169;50.560;9.714;2024-03-22T04:53:07;23.53;;;15.33;;
10248;SDS011;5169;50.560;9.714;2024-03-22T04:55:32;26.73;;;17.47;;
10248;SDS011;5169;50.560;9.714;2024-03-22T04:57:58;28.23;;;15.80;;
10248;SDS011;5169;50.560;9.714;2024-03-22T05:00:24;27.17;;;17.03;;
10248;SDS011;5169;50.560;9.714;2024-03-22T05:02:52;26.90;;;16.37;;
10248;SDS011;5169;50.560;9.714;2024-03-22T05:05:20;27.07;;;17.17;;
10248;SDS011;5169;50.560;9.714;2024-03-22T05:07:46;25.63;;;16.80;;
10248;SDS011;5169;50.560;9.714;2024-03-22T05:10:12;26.63;;;16.37;;
10248;SDS011;5169;50.560;9.714;2024-03-22T05:12:41;29.17;;;16.57;;
10248;SDS011;5169;50.560;9.714;2024-03-22T05:15:07;27.00;;;17.27;;
10248;SDS011;5169;50.560;9.714;2024-03-22T05:17:33;28.37;;;17.40;;
10248;SDS011;5169;50.560;9.714;2024-03-22T05:19:59;29.30;;;16.60;;
10248;SDS011;5169;50.560;9.714;2024-03-22T05:22:24;28.50;;;16.57;;
10248;SDS011;5169;50.560;9.714;2024-03-22T05:24:50;28.43;;;17.97;;
10248;SDS011;5169;50.560;9.714;2024-03-22T05:27:18;27.03;;;17.47;;
10248;SDS011;5169;50.560;9.714;2024-03-22T05:29:43;31.03;;;18.87;;
10248;SDS011;5169;50.560;9.714;2024-03-22T05:32:12;29.13;;;17.53;;
10248;SDS011;5169;50.560;9.714;2024-03-22T05:34:37;29.03;;;17.93;;
10248;SDS011;5169;50.560;9.714;2024-03-22T05:37:07;30.13;;;19.07;;
10248;SDS011;5169;50.560;9.714;2024-03-22T05:39:36;29.83;;;18.30;;
10248;SDS011;5169;50.560;9.714;2024-03-22T05:42:01;29.63;;;18.63;;
10248;SDS011;5169;50.560;9.714;2024-03-22T05:44:29;30.70;;;17.63;;
10248;SDS011;5169;50.560;9.714;2024-03-22T05:46:55;29.57;;;18.67;;
10248;SDS011;5169;50.560;9.714;2024-03-22T05:49:20;28.70;;;18.27;;
10248;SDS011;5169;50.560;9.714;2024-03-22T05:51:46;29.70;;;18.40;;
10248;SDS011;5169;50.560;9.714;2024-03-22T05:54:14;29.37;;;19.00;;
10248;SDS011;5169;50.560;9.714;2024-03-22T05:56:39;31.77;;;18.07;;
10248;SDS011;5169;50.560;9.714;2024-03-22T05:59:07;26.43;;;17.27;;
10248;SDS011;5169;50.560;9.714;2024-03-22T06:01:35;28.53;;;17.80;;
10248;SDS011;5169;50.560;9.714;2024-03-22T06:04:04;33.00;;;17.90;;
10248;SDS011;5169;50.560;9.714;2024-03-22T06:06:30;27.17;;;17.70;;
10248;SDS011;5169;50.560;9.714;2024-03-22T06:09:03;29.03;;;17.87;;
10248;SDS011;5169;50.560;9.714;2024-03-22T06:11:36;28.20;;;18.07;;
10248;SDS011;5169;50.560;9.714;2024-03-22T06:14:11;28.23;;;17.60;;
10248;SDS011;5169;50.560;9.714;2024-03-22T06:16:37;28.90;;;18.47;;
10248;SDS011;5169;50.560;9.714;2024-03-22T06:19:05;26.47;;;17.57;;
10248;SDS011;5169;50.560;9.714;2024-03-22T06:21:30;26.83;;;17.40;;
10248;SDS011;5169;50.560;9.714;2024-03-22T06:23:56;30.17;;;18.67;;
10248;SDS011;5169;50.560;9.714;2024-03-22T06:26:23;29.37;;;18.37;;
10248;SDS011;5169;50.560;9.714;2024-03-22T06:28:49;27.33;;;18.00;;
10248;SDS011;5169;50.560;9.714;2024-03-22T06:31:17;27.73;;;17.73;;
10248;SDS011;5169;50.560;9.714;2024-03-22T06:33:42;30.10;;;18.10;;
10248;SDS011;5169;50.560;9.714;2024-03-22T06:36:08;27.73;;;17.57;;
10248;SDS011;5169;50.560;9.714;2024-03-22T06:38:35;26.37;;;17.13;;
10248;SDS011;5169;50.560;9.714;2024-03-22T06:41:03;30.87;;;18.57;;
10248;SDS011;5169;50.560;9.714;2024-03-22T06:43:29;26.67;;;18.37;;
10248;SDS011;5169;50.560;9.714;2024-03-22T06:45:54;28.47;;;18.43;;
10248;SDS011;5169;50.560;9.714;2024-03-22T06:48:20;28.23;;;18.10;;
10248;SDS011;5169;50.560;9.714;2024-03-22T06:50:48;27.63;;;18.07;;
10248;SDS011;5169;50.560;9.714;2024-03-22T06:53:13;27.53;;;17.73;;
10248;SDS011;5169;50.560;9.714;2024-03-22T06:55:39;31.57;;;18.33;;
10248;SDS011;5169;50.560;9.714;2024-03-22T06:58:04;26.70;;;18.27;;
10248;SDS011;5169;50.560;9.714;2024-03-22T07:00:30;28.60;;;17.87;;
10248;SDS011;5169;50.560;9.714;2024-03-22T07:02:55;28.77;;;18.90;;
10248;SDS011;5169;50.560;9.714;2024-03-22T07:05:21;28.43;;;17.50;;
10248;SDS011;5169;50.560;9.714;2024-03-22T07:07:47;29.83;;;18.47;;
10248;SDS011;5169;50.560;9.714;2024-03-22T07:10:12;29.10;;;18.70;;
10248;SDS011;5169;50.560;9.714;2024-03-22T07:12:40;27.93;;;16.97;;
10248;SDS011;5169;50.560;9.714;2024-03-22T07:15:06;27.23;;;17.03;;
10248;SDS011;5169;50.560;9.714;2024-03-22T07:17:32;26.43;;;17.33;;
10248;SDS011;5169;50.560;9.714;2024-03-22T07:19:57;27.10;;;17.40;;
10248;SDS011;5169;50.560;9.714;2024-03-22T07:22:23;27.93;;;17.20;;
10248;SDS011;5169;50.560;9.714;2024-03-22T07:24:50;24.53;;;17.30;;
10248;SDS011;5169;50.560;9.714;2024-03-22T07:27:16;28.93;;;17.07;;
10248;SDS011;5169;50.560;9.714;2024-03-22T07:29:42;25.70;;;16.83;;
10248;SDS011;5169;50.560;9.714;2024-03-22T07:32:09;25.57;;;16.37;;
10248;SDS011;5169;50.560;9.714;2024-03-22T07:34:34;27.00;;;17.17;;
10248;SDS011;5169;50.560;9.714;2024-03-22T07:37:04;27.33;;;17.20;;
10248;SDS011;5169;50.560;9.714;2024-03-22T07:39:30;24.70;;;16.73;;
10248;SDS011;5169;50.560;9.714;2024-03-22T07:42:00;25.40;;;16.33;;
10248;SDS011;5169;50.560;9.714;2024-03-22T07:44:27;23.53;;;16.00;;
10248;SDS011;5169;50.560;9.714;2024-03-22T07:46:55;27.57;;;17.50;;
10248;SDS011;5169;50.560;9.714;2024-03-22T07:49:21;24.73;;;16.50;;
10248;SDS011;5169;50.560;9.714;2024-03-22T07:51:46;23.70;;;16.97;;
10248;SDS011;5169;50.560;9.714;2024-03-22T07:54:12;26.00;;;16.43;;
10248;SDS011;5169;50.560;9.714;2024-03-22T07:56:37;22.83;;;15.83;;
10248;SDS011;5169;50.560;9.714;2024-03-22T07:59:03;24.73;;;15.80;;
10248;SDS011;5169;50.560;9.714;2024-03-22T08:01:29;24.73;;;16.17;;
10248;SDS011;5169;50.560;9.714;2024-03-22T08:03:55;21.80;;;15.07;;
10248;SDS011;5169;50.560;9.714;2024-03-22T08:06:23;23.67;;;16.17;;
10248;SDS011;5169;50.560;9.714;2024-03-22T08:08:48;26.03;;;15.67;;
10248;SDS011;5169;50.560;9.714;2024-03-22T08:11:14;24.13;;;15.43;;
10248;SDS011;5169;50.560;9.714;2024-03-22T08:13:44;22.57;;;16.00;;
10248;SDS011;5169;50.560;9.714;2024-03-22T08:16:10;19.83;;;14.70;;
10248;SDS011;5169;50.560;9.714;2024-03-22T08:18:35;23.33;;;15.33;;
10248;SDS011;5169;50.560;9.714;2024-03-22T08:21:06;22.53;;;14.80;;
10248;SDS011;5169;50.560;9.714;2024-03-22T08:23:31;23.33;;;14.63;;
10248;SDS011;5169;50.560;9.714;2024-03-22T08:25:57;21.53;;;14.93;;
10248;SDS011;5169;50.560;9.714;2024-03-22T08:28:28;21.13;;;14.43;;
10248;SDS011;5169;50.560;9.714;2024-03-22T08:30:59;26.00;;;14.50;;
10248;SDS011;5169;50.560;9.714;2024-03-22T08:33:31;20.87;;;14.53;;
10248;SDS011;5169;50.560;9.714;2024-03-22T08:35:57;20.43;;;14.53;;
10248;SDS011;5169;50.560;9.714;2024-03-22T08:38:26;20.13;;;14.50;;
10248;SDS011;5169;50.560;9.714;2024-03-22T08:40:52;21.33;;;13.73;;
10248;SDS011;5169;50.560;9.714;2024-03-22T08:43:20;21.77;;;13.83;;
10248;SDS011;5169;50.560;9.714;2024-03-22T08:45:47;22.33;;;13.77;;
10248;SDS011;5169;50.560;9.714;2024-03-22T08:48:13;23.63;;;13.23;;
10248;SDS011;5169;50.560;9.714;2024-03-22T08:50:41;21.60;;;13.53;;
10248;SDS011;5169;50.560;9.714;2024-03-22T08:53:07;20.80;;;14.07;;
10248;SDS011;5169;50.560;9.714;2024-03-22T08:55:33;19.93;;;12.80;;
10248;SDS011;5169;50.560;9.714;2024-03-22T08:58:01;19.50;;;12.83;;
10248;SDS011;5169;50.560;9.714;2024-03-22T09:00:28;17.87;;;12.90;;
10248;SDS011;5169;50.560;9.714;2024-03-22T09:02:56;19.73;;;12.67;;
10248;SDS011;5169;50.560;9.714;2024-03-22T09:05:22;19.67;;;13.10;;
10248;SDS011;5169;50.560;9.714;2024-03-22T09:07:49;17.07;;;11.57;;
10248;SDS011;5169;50.560;9.714;2024-03-22T09:10:20;18.47;;;11.90;;
10248;SDS011;5169;50.560;9.714;2024-03-22T09:12:46;17.67;;;12.30;;
10248;SDS011;5169;50.560;9.714;2024-03-22T09:15:11;16.33;;;11.53;;
10248;SDS011;5169;50.560;9.714;2024-03-22T09:17:39;19.83;;;12.63;;
10248;SDS011;5169;50.560;9.714;2024-03-22T09:20:07;17.93;;;11.97;;
10248;SDS011;5169;50.560;9.714;2024-03-22T09:22:33;16.47;;;11.43;;
10248;SDS011;5169;50.560;9.714;2024-03-22T09:25:01;17.70;;;11.40;;
10248;SDS011;5169;50.560;9.714;2024-03-22T09:27:27;18.40;;;11.73;;
10248;SDS011;5169;50.560;9.714;2024-03-22T09:29:52;16.07;;;11.20;;
10248;SDS011;5169;50.560;9.714;2024-03-22T09:32:18;17.47;;;11.73;;
10248;SDS011;5169;50.560;9.714;2024-03-22T09:34:43;15.27;;;11.30;;
10248;SDS011;5169;50.560;9.714;2024-03-22T09:37:09;17.27;;;11.33;;
10248;SDS011;5169;50.560;9.714;2024-03-22T09:39:35;14.33;;;10.03;;
10248;SDS011;5169;50.560;9.714;2024-03-22T09:42:00;13.80;;;10.47;;
10248;SDS011;5169;50.560;9.714;2024-03-22T09:44:31;15.93;;;10.20;;
10248;SDS011;5169;50.560;9.714;2024-03-22T09:46:57;15.93;;;10.63;;
10248;SDS011;5169;50.560;9.714;2024-03-22T09:49:26;12.07;;;9.70;;
10248;SDS011;5169;50.560;9.714;2024-03-22T09:51:54;14.87;;;10.23;;
10248;SDS011;5169;50.560;9.714;2024-03-22T09:54:22;14.63;;;10.83;;
10248;SDS011;5169;50.560;9.714;2024-03-22T09:56:50;13.47;;;9.67;;
10248;SDS011;5169;50.560;9.714;2024-03-22T09:59:16;13.40;;;10.13;;
10248;SDS011;5169;50.560;9.714;2024-03-22T10:01:42;13.53;;;10.73;;
10248;SDS011;5169;50.560;9.714;2024-03-22T10:04:08;16.50;;;10.40;;
10248;SDS011;5169;50.560;9.714;2024-03-22T10:06:37;13.20;;;9.50;;
10248;SDS011;5169;50.560;9.714;2024-03-22T10:09:02;14.43;;;10.37;;
10248;SDS011;5169;50.560;9.714;2024-03-22T10:11:29;15.00;;;10.60;;
10248;SDS011;5169;50.560;9.714;2024-03-22T10:13:55;12.80;;;9.80;;
10248;SDS011;5169;50.560;9.714;2024-03-22T10:16:24;14.07;;;9.67;;
10248;SDS011;5169;50.560;9.714;2024-03-22T10:18:50;13.83;;;9.83;;
10248;SDS011;5169;50.560;9.714;2024-03-22T10:21:19;15.30;;;10.00;;
10248;SDS011;5169;50.560;9.714;2024-03-22T10:23:47;13.30;;;9.73;;
10248;SDS011;5169;50.560;9.714;2024-03-22T10:26:13;13.60;;;9.30;;
10248;SDS011;5169;50.560;9.714;2024-03-22T10:28:46;11.40;;;9.27;;
10248;SDS011;5169;50.560;9.714;2024-03-22T10:31:12;11.07;;;9.10;;
10248;SDS011;5169;50.560;9.714;2024-03-22T10:33:38;11.67;;;8.83;;
10248;SDS011;5169;50.560;9.714;2024-03-22T10:36:05;12.40;;;9.27;;
10248;SDS011;5169;50.560;9.714;2024-03-22T10:38:36;12.30;;;9.27;;
10248;SDS011;5169;50.560;9.714;2024-03-22T10:41:05;12.50;;;9.20;;
10248;SDS011;5169;50.560;9.714;2024-03-22T10:43:31;11.37;;;9.37;;
10248;SDS011;5169;50.560;9.714;2024-03-22T10:45:59;11.20;;;9.00;;
10248;SDS011;5169;50.560;9.714;2024-03-22T10:48:29;10.80;;;8.93;;
10248;SDS011;5169;50.560;9.714;2024-03-22T10:50:59;11.07;;;9.07;;
10248;SDS011;5169;50.560;9.714;2024-03-22T10:53:30;10.53;;;8.87;;
10248;SDS011;5169;50.560;9.714;2024-03-22T10:55:57;12.43;;;8.83;;
10248;SDS011;5169;50.560;9.714;2024-03-22T10:58:27;13.47;;;9.17;;
10248;SDS011;5169;50.560;9.714;2024-03-22T11:00:54;10.30;;;8.50;;
10248;SDS011;5169;50.560;9.714;2024-03-22T11:03:21;11.50;;;9.00;;
10248;SDS011;5169;50.560;9.714;2024-03-22T11:05:49;10.97;;;8.97;;
10248;SDS011;5169;50.560;9.714;2024-03-22T11:08:25;11.37;;;9.03;;
10248;SDS011;5169;50.560;9.714;2024-03-22T11:10:55;12.23;;;9.07;;
10248;SDS011;5169;50.560;9.714;2024-03-22T11:13:22;11.83;;;8.77;;
10248;SDS011;5169;50.560;9.714;2024-03-22T11:15:51;11.63;;;8.90;;
10248;SDS011;5169;50.560;9.714;2024-03-22T11:18:19;10.63;;;8.60;;
10248;SDS011;5169;50.560;9.714;2024-03-22T11:20:47;10.77;;;8.87;;
10248;SDS011;5169;50.560;9.714;2024-03-22T11:23:13;10.00;;;7.50;;
10248;SDS011;5169;50.560;9.714;2024-03-22T11:25:39;9.33;;;7.60;;
10248;SDS011;5169;50.560;9.714;2024-03-22T11:28:04;10.30;;;8.27;;
10248;SDS011;5169;50.560;9.714;2024-03-22T11:30:31;10.13;;;7.57;;
10248;SDS011;5169;50.560;9.714;2024-03-22T11:33:00;12.03;;;8.10;;
10248;SDS011;5169;50.560;9.714;2024-03-22T11:35:30;11.07;;;8.33;;
10248;SDS011;5169;50.560;9.714;2024-03-22T11:37:58;11.93;;;7.90;;
10248;SDS011;5169;50.560;9.714;2024-03-22T11:40:24;10.93;;;8.00;;
10248;SDS011;5169;50.560;9.714;2024-03-22T11:42:51;9.77;;;7.53;;
10248;SDS011;5169;50.560;9.714;2024-03-22T11:45:18;10.30;;;8.67;;
10248;SDS011;5169;50.560;9.714;2024-03-22T11:47:46;10.87;;;7.83;;
10248;SDS011;5169;50.560;9.714;2024-03-22T11:50:16;11.50;;;7.77;;
10248;SDS011;5169;50.560;9.714;2024-03-22T11:52:47;11.60;;;8.20;;
10248;SDS011;5169;50.560;9.714;2024-03-22T11:55:13;10.83;;;8.40;;
10248;SDS011;5169;50.560;9.714;2024-03-22T11:57:39;9.63;;;7.53;;
10248;SDS011;5169;50.560;9.714;2024-03-22T12:00:12;9.63;;;7.73;;
10248;SDS011;5169;50.560;9.714;2024-03-22T12:02:38;10.30;;;8.43;;
10248;SDS011;5169;50.560;9.714;2024-03-22T12:05:04;10.07;;;8.43;;
10248;SDS011;5169;50.560;9.714;2024-03-22T12:07:33;10.27;;;7.97;;
10248;SDS011;5169;50.560;9.714;2024-03-22T12:09:59;10.53;;;8.80;;
10248;SDS011;5169;50.560;9.714;2024-03-22T12:12:27;12.37;;;8.30;;
10248;SDS011;5169;50.560;9.714;2024-03-22T12:14:53;9.00;;;7.73;;
10248;SDS011;5169;50.560;9.714;2024-03-22T12:17:19;11.40;;;8.13;;
10248;SDS011;5169;50.560;9.714;2024-03-22T12:19:46;11.10;;;7.50;;
10248;SDS011;5169;50.560;9.714;2024-03-22T12:22:12;8.67;;;7.43;;
10248;SDS011;5169;50.560;9.714;2024-03-22T12:24:40;9.77;;;7.83;;
10248;SDS011;5169;50.560;9.714;2024-03-22T12:27:06;9.50;;;8.33;;
10248;SDS011;5169;50.560;9.714;2024-03-22T12:29:32;12.73;;;8.43;;
10248;SDS011;5169;50.560;9.714;2024-03-22T12:31:58;11.97;;;8.90;;
10248;SDS011;5169;50.560;9.714;2024-03-22T12:34:26;10.50;;;7.73;;
10248;SDS011;5169;50.560;9.714;2024-03-22T12:36:52;9.37;;;7.83;;
10248;SDS011;5169;50.560;9.714;2024-03-22T12:39:20;10.03;;;7.93;;
10248;SDS011;5169;50.560;9.714;2024-03-22T12:41:46;10.77;;;7.97;;
10248;SDS011;5169;50.560;9.714;2024-03-22T12:44:12;9.93;;;7.93;;
10248;SDS011;5169;50.560;9.714;2024-03-22T12:46:37;11.60;;;8.70;;
10248;SDS011;5169;50.560;9.714;2024-03-22T12:49:03;11.93;;;7.67;;
10248;SDS011;5169;50.560;9.714;2024-03-22T12:51:29;10.30;;;8.20;;
10248;SDS011;5169;50.560;9.714;2024-03-22T12:53:59;10.53;;;7.87;;
10248;SDS011;5169;50.560;9.714;2024-03-22T12:56:25;9.47;;;7.90;;
10248;SDS011;5169;50.560;9.714;2024-03-22T12:58:55;11.27;;;7.90;;
10248;SDS011;5169;50.560;9.714;2024-03-22T13:01:23;8.63;;;7.50;;
10248;SDS011;5169;50.560;9.714;2024-03-22T13:03:53;9.73;;;8.00;;
10248;SDS011;5169;50.560;9.714;2024-03-22T13:06:19;9.43;;;7.70;;
10248;SDS011;5169;50.560;9.714;2024-03-22T13:08:47;10.57;;;8.60;;
10248;SDS011;5169;50.560;9.714;2024-03-22T13:11:12;13.73;;;9.37;;
10248;SDS011;5169;50.560;9.714;2024-03-22T13:13:39;12.30;;;8.80;;
10248;SDS011;5169;50.560;9.714;2024-03-22T13:16:07;11.87;;;8.47;;
10248;SDS011;5169;50.560;9.714;2024-03-22T13:18:34;9.83;;;8.43;;
10248;SDS011;5169;50.560;9.714;2024-03-22T13:20:59;13.00;;;8.97;;
10248;SDS011;5169;50.560;9.714;2024-03-22T13:23:30;10.80;;;8.47;;
10248;SDS011;5169;50.560;9.714;2024-03-22T13:25:56;9.30;;;8.13;;
10248;SDS011;5169;50.560;9.714;2024-03-22T13:28:23;10.73;;;8.17;;
10248;SDS011;5169;50.560;9.714;2024-03-22T13:33:33;12.47;;;8.23;;
10248;SDS011;5169;50.560;9.714;2024-03-22T13:35:59;10.00;;;8.67;;
10248;SDS011;5169;50.560;9.714;2024-03-22T13:38:27;9.37;;;8.37;;
10248;SDS011;5169;50.560;9.714;2024-03-22T13:40:57;13.53;;;9.00;;
10248;SDS011;5169;50.560;9.714;2024-03-22T13:43:23;12.23;;;9.13;;
10248;SDS011;5169;50.560;9.714;2024-03-22T13:45:52;13.37;;;8.80;;
10248;SDS011;5169;50.560;9.714;2024-03-22T13:48:21;10.80;;;8.73;;
10248;SDS011;5169;50.560;9.714;2024-03-22T13:50:51;10.87;;;8.07;;
10248;SDS011;5169;50.560;9.714;2024-03-22T13:53:20;10.20;;;8.33;;
10248;SDS011;5169;50.560;9.714;2024-03-22T13:55:49;13.80;;;8.90;;
10248;SDS011;5169;50.560;9.714;2024-03-22T13:58:16;11.13;;;8.30;;
10248;SDS011;5169;50.560;9.714;2024-03-22T14:00:41;11.93;;;7.93;;
10248;SDS011;5169;50.560;9.714;2024-03-22T14:03:07;11.67;;;8.40;;
10248;SDS011;5169;50.560;9.714;2024-03-22T14:05:33;12.13;;;8.30;;
10248;SDS011;5169;50.560;9.714;2024-03-22T14:08:01;11.80;;;8.27;;
10248;SDS011;5169;50.560;9.714;2024-03-22T14:10:29;12.10;;;8.20;;
10248;SDS011;5169;50.560;9.714;2024-03-22T14:12:58;12.53;;;8.10;;
10248;SDS011;5169;50.560;9.714;2024-03-22T14:15:26;11.50;;;8.50;;
10248;SDS011;5169;50.560;9.714;2024-03-22T14:17:56;14.47;;;8.97;;
10248;SDS011;5169;50.560;9.714;2024-03-22T14:20:22;11.43;;;8.37;;
10248;SDS011;5169;50.560;9.714;2024-03-22T14:22:48;10.67;;;8.10;;
10248;SDS011;5169;50.560;9.714;2024-03-22T14:25:14;11.30;;;7.73;;
10248;SDS011;5169;50.560;9.714;2024-03-22T14:27:39;11.93;;;8.30;;
10248;SDS011;5169;50.560;9.714;2024-03-22T14:30:10;11.07;;;8.10;;
10248;SDS011;5169;50.560;9.714;2024-03-22T14:32:37;9.57;;;7.80;;
10248;SDS011;5169;50.560;9.714;2024-03-22T14:35:03;10.43;;;7.50;;
10248;SDS011;5169;50.560;9.714;2024-03-22T14:37:29;11.43;;;7.63;;
10248;SDS011;5169;50.560;9.714;2024-03-22T14:39:57;13.43;;;8.70;;
10248;SDS011;5169;50.560;9.714;2024-03-22T14:42:23;11.80;;;8.60;;
10248;SDS011;5169;50.560;9.714;2024-03-22T14:44:49;11.80;;;8.90;;